createdAt,value
2022-10-06T00:01:41.098Z,14.39
2022-10-06T00:04:08.218Z,14.30
2022-10-06T00:06:34.849Z,14.33
2022-10-06T00:09:01.615Z,14.41
2022-10-06T00:11:28.623Z,14.17
2022-10-06T00:13:56.378Z,14.33
2022-10-06T00:16:23.575Z,14.18
2022-10-06T00:18:50.847Z,14.11
2022-10-06T00:21:17.855Z,14.35
2022-10-06T00:23:44.627Z,14.49
2022-10-06T00:26:16.890Z,14.59
2022-10-06T00:28:46.133Z,14.63
2022-10-06T00:31:13.403Z,14.43
2022-10-06T00:33:40.246Z,14.43
2022-10-06T00:36:07.575Z,14.48
2022-10-06T00:38:34.780Z,14.49
2022-10-06T00:41:01.510Z,14.35
2022-10-06T00:43:46.619Z,14.28
2022-10-06T00:46:16.099Z,14.31
2022-10-06T00:48:43.055Z,14.33
2022-10-06T00:51:09.891Z,14.23
2022-10-06T00:53:36.877Z,14.06
2022-10-06T00:56:03.668Z,14.29
2022-10-06T00:58:31.865Z,14.26
2022-10-06T01:00:58.992Z,13.88
2022-10-06T01:03:34.237Z,14.19
2022-10-06T01:06:02.202Z,14.11
2022-10-06T01:08:29.468Z,14.16
2022-10-06T01:10:56.479Z,13.93
2022-10-06T01:13:23.503Z,13.99
2022-10-06T01:15:58.585Z,14.00
2022-10-06T01:18:27.146Z,13.92
2022-10-06T01:21:03.619Z,13.72
2022-10-06T01:23:31.291Z,13.82
2022-10-06T01:25:58.595Z,13.73
2022-10-06T01:28:25.371Z,13.80
2022-10-06T01:30:54.406Z,13.66
2022-10-06T01:33:21.826Z,13.61
2022-10-06T01:35:50.290Z,14.01
2022-10-06T01:38:17.545Z,13.72
2022-10-06T01:40:46.234Z,13.75
2022-10-06T01:43:13.030Z,13.74
2022-10-06T01:45:42.269Z,13.38
2022-10-06T01:48:09.316Z,13.55
2022-10-06T01:50:36.460Z,13.59
2022-10-06T01:53:03.482Z,13.61
2022-10-06T01:55:31.288Z,13.62
2022-10-06T01:57:58.983Z,13.42
2022-10-06T02:00:26.113Z,13.31
2022-10-06T02:02:53.614Z,13.40
2022-10-06T02:05:20.472Z,13.49
2022-10-06T02:07:47.575Z,13.53
2022-10-06T02:10:15.263Z,13.39
2022-10-06T02:12:43.385Z,13.40
2022-10-06T02:15:13.221Z,13.20
2022-10-06T02:17:40.343Z,13.25
2022-10-06T02:20:07.302Z,13.28
2022-10-06T02:22:37.601Z,13.31
2022-10-06T02:25:04.549Z,13.36
2022-10-06T02:27:31.308Z,13.40
2022-10-06T02:29:58.799Z,13.30
2022-10-06T02:32:31.965Z,13.32
2022-10-06T02:35:00.298Z,13.06
2022-10-06T02:37:27.144Z,13.07
2022-10-06T02:39:53.937Z,13.08
2022-10-06T02:42:21.172Z,13.11
2022-10-06T02:44:49.343Z,13.29
2022-10-06T02:47:16.751Z,13.06
2022-10-06T02:49:43.949Z,13.26
2022-10-06T02:52:11.192Z,13.23
2022-10-06T02:54:37.948Z,13.18
2022-10-06T02:57:05.063Z,13.27
2022-10-06T02:59:31.833Z,12.96
2022-10-06T03:01:58.742Z,13.13
2022-10-06T03:04:25.865Z,13.02
2022-10-06T03:06:52.688Z,13.06
2022-10-06T03:09:19.596Z,13.21
2022-10-06T03:11:46.549Z,12.92
2022-10-06T03:14:16.605Z,12.78
2022-10-06T03:16:47.494Z,12.61
2022-10-06T03:19:14.571Z,12.51
2022-10-06T03:21:42.311Z,12.83
2022-10-06T03:24:10.502Z,12.88
2022-10-06T03:26:38.462Z,12.64
2022-10-06T03:29:10.481Z,12.38
2022-10-06T03:31:40.078Z,12.59
2022-10-06T03:34:06.935Z,12.88
2022-10-06T03:36:34.016Z,12.88
2022-10-06T03:39:01.640Z,12.96
2022-10-06T03:41:29.423Z,12.56
2022-10-06T03:43:57.018Z,12.68
2022-10-06T03:46:25.081Z,12.87
2022-10-06T03:48:52.457Z,12.43
2022-10-06T03:51:23.578Z,12.66
2022-10-06T03:53:51.639Z,12.74
2022-10-06T03:56:20.683Z,12.69
2022-10-06T03:58:54.492Z,12.44
2022-10-06T04:01:26.210Z,12.34
2022-10-06T04:03:55.325Z,12.54
2022-10-06T04:06:22.394Z,12.48
2022-10-06T04:08:49.788Z,12.24
2022-10-06T04:11:17.962Z,12.44
2022-10-06T04:13:45.277Z,12.20
2022-10-06T04:16:13.339Z,12.37
2022-10-06T04:18:40.786Z,12.40
2022-10-06T04:21:07.814Z,12.31
2022-10-06T04:23:36.518Z,12.39
2022-10-06T04:26:06.366Z,12.29
2022-10-06T04:28:33.639Z,12.36
2022-10-06T04:31:01.008Z,12.48
2022-10-06T04:33:28.378Z,12.40
2022-10-06T04:35:58.684Z,12.15
2022-10-06T04:38:25.732Z,12.23
2022-10-06T04:40:53.543Z,12.32
2022-10-06T04:43:20.441Z,12.38
2022-10-06T04:45:47.228Z,12.23
2022-10-06T04:48:14.381Z,12.24
2022-10-06T04:50:41.071Z,12.12
2022-10-06T04:53:07.877Z,12.38
2022-10-06T04:55:34.850Z,12.36
2022-10-06T04:58:02.228Z,12.07
2022-10-06T05:00:28.977Z,12.17
2022-10-06T05:02:56.296Z,12.36
2022-10-06T05:05:23.211Z,12.26
2022-10-06T05:07:50.301Z,11.98
2022-10-06T05:10:17.468Z,11.97
2022-10-06T05:12:44.526Z,12.37
2022-10-06T05:15:11.360Z,12.28
2022-10-06T05:17:38.371Z,12.30
2022-10-06T05:20:05.444Z,12.20
2022-10-06T05:22:34.407Z,12.18
2022-10-06T05:25:02.015Z,12.22
2022-10-06T05:27:28.786Z,12.05
2022-10-06T05:29:55.628Z,12.41
2022-10-06T05:32:22.609Z,12.20
2022-10-06T05:34:49.256Z,12.56
2022-10-06T05:37:16.001Z,12.67
2022-10-06T05:39:43.397Z,12.41
2022-10-06T05:42:10.101Z,12.51
2022-10-06T05:44:37.260Z,12.31
2022-10-06T05:47:04.814Z,12.82
2022-10-06T05:49:31.748Z,12.60
2022-10-06T05:51:58.592Z,12.62
2022-10-06T05:54:25.801Z,12.70
2022-10-06T05:56:52.890Z,12.57
2022-10-06T05:59:19.590Z,12.69
2022-10-06T06:01:47.213Z,12.62
2022-10-06T06:04:14.832Z,12.80
2022-10-06T06:06:42.815Z,12.88
2022-10-06T06:09:10.936Z,12.80
2022-10-06T06:11:42.082Z,12.86
2022-10-06T06:14:09.668Z,12.94
2022-10-06T06:16:39.059Z,12.93
2022-10-06T06:19:07.024Z,13.16
2022-10-06T06:21:35.735Z,13.25
2022-10-06T06:24:03.036Z,13.37
2022-10-06T06:26:31.729Z,13.36
2022-10-06T06:29:02.665Z,13.42
2022-10-06T06:31:37.586Z,13.45
2022-10-06T06:34:06.785Z,13.45
2022-10-06T06:36:35.981Z,13.55
2022-10-06T06:39:05.585Z,13.84
2022-10-06T06:41:33.736Z,13.73
2022-10-06T06:44:01.222Z,13.75
2022-10-06T06:46:32.014Z,14.08
2022-10-06T06:49:04.646Z,13.82
2022-10-06T06:51:33.254Z,13.68
2022-10-06T06:54:02.382Z,14.02
2022-10-06T06:56:35.081Z,14.19
2022-10-06T06:59:04.029Z,14.54
2022-10-06T07:01:31.374Z,14.64
2022-10-06T07:04:01.122Z,14.67
2022-10-06T07:06:29.811Z,15.00
2022-10-06T07:08:57.897Z,15.37
2022-10-06T07:11:29.683Z,15.41
2022-10-06T07:13:58.505Z,15.86
2022-10-06T07:16:44.346Z,16.09
2022-10-06T07:19:30.420Z,16.25
2022-10-06T07:22:23.070Z,16.57
2022-10-06T07:25:08.208Z,17.06
2022-10-06T07:27:36.333Z,17.46
2022-10-06T07:30:07.361Z,18.00
2022-10-06T07:32:34.251Z,18.26
2022-10-06T07:35:01.106Z,18.28
2022-10-06T07:37:29.115Z,18.62
2022-10-06T07:39:56.826Z,18.91
2022-10-06T07:42:23.947Z,19.02
2022-10-06T07:45:09.802Z,19.46
2022-10-06T07:47:40.874Z,19.39
2022-10-06T07:50:08.627Z,19.65
2022-10-06T07:52:39.313Z,19.70
2022-10-06T07:55:06.971Z,19.87
2022-10-06T07:57:35.339Z,19.93
2022-10-06T08:00:05.545Z,20.07
2022-10-06T08:02:39.941Z,20.24
2022-10-06T08:05:08.281Z,20.60
2022-10-06T08:07:35.284Z,20.70
2022-10-06T08:10:02.020Z,20.63
2022-10-06T08:12:34.896Z,20.79
2022-10-06T08:15:06.940Z,20.84
2022-10-06T08:17:36.750Z,20.88
2022-10-06T08:20:07.371Z,20.73
2022-10-06T08:22:34.496Z,20.47
2022-10-06T08:25:06.161Z,20.42
2022-10-06T08:27:34.953Z,20.76
2022-10-06T08:30:02.234Z,20.73
2022-10-06T08:32:28.959Z,21.09
2022-10-06T08:34:55.997Z,21.51
2022-10-06T08:37:27.372Z,21.37
2022-10-06T08:39:54.466Z,21.34
2022-10-06T08:42:41.420Z,21.35
2022-10-06T08:45:21.844Z,21.37
2022-10-06T08:47:56.493Z,21.86
2022-10-06T08:50:24.356Z,21.68
2022-10-06T08:52:51.166Z,21.79
2022-10-06T08:55:18.374Z,22.00
2022-10-06T08:58:00.637Z,21.93
2022-10-06T09:00:30.132Z,21.82
2022-10-06T09:02:57.603Z,22.13
2022-10-06T09:05:29.831Z,22.32
2022-10-06T09:08:07.595Z,22.59
2022-10-06T09:10:44.798Z,22.59
2022-10-06T09:13:12.680Z,22.80
2022-10-06T09:15:48.217Z,22.43
2022-10-06T09:18:49.850Z,22.51
2022-10-06T09:21:33.182Z,22.69
2022-10-06T09:24:03.835Z,22.69
2022-10-06T09:26:31.405Z,23.24
2022-10-06T09:28:58.196Z,23.11
2022-10-06T09:31:28.778Z,23.23
2022-10-06T09:34:18.820Z,23.31
2022-10-06T09:37:01.937Z,23.42
2022-10-06T09:39:33.196Z,23.08
2022-10-06T09:42:04.264Z,22.51
2022-10-06T09:44:40.655Z,22.83
2022-10-06T09:47:22.508Z,23.11
2022-10-06T09:50:10.080Z,23.36
2022-10-06T09:52:36.783Z,22.91
2022-10-06T09:55:07.147Z,22.55
2022-10-06T09:57:33.931Z,23.08
2022-10-06T10:00:00.733Z,23.10
2022-10-06T10:02:33.693Z,22.09
2022-10-06T10:05:02.483Z,23.03
2022-10-06T10:07:30.108Z,23.64
2022-10-06T10:10:11.216Z,23.46
2022-10-06T10:12:38.351Z,23.41
2022-10-06T10:15:23.587Z,23.86
2022-10-06T10:17:55.464Z,23.93
2022-10-06T10:20:25.143Z,23.26
2022-10-06T10:22:55.815Z,23.43
2022-10-06T10:25:34.571Z,23.23
2022-10-06T10:28:07.041Z,23.53
2022-10-06T10:30:35.728Z,23.26
2022-10-06T10:35:51.471Z,22.96
2022-10-06T10:38:22.065Z,23.05
2022-10-06T10:40:50.519Z,23.36
2022-10-06T10:43:25.649Z,23.14
2022-10-06T10:45:57.233Z,22.88
2022-10-06T10:48:32.513Z,22.11
2022-10-06T10:51:07.819Z,23.02
2022-10-06T10:53:43.780Z,22.80
2022-10-06T10:56:11.946Z,22.85
2022-10-06T10:58:39.123Z,22.37
2022-10-06T11:01:12.033Z,23.00
2022-10-06T11:03:39.022Z,22.91
2022-10-06T11:06:28.046Z,23.27
2022-10-06T11:08:58.630Z,23.26
2022-10-06T11:11:28.020Z,23.26
2022-10-06T11:13:55.010Z,23.16
2022-10-06T11:16:31.930Z,23.18
2022-10-06T11:19:18.508Z,23.38
2022-10-06T11:21:55.215Z,23.81
2022-10-06T11:24:25.045Z,23.48
2022-10-06T11:26:54.526Z,23.71
2022-10-06T11:29:40.604Z,24.05
2022-10-06T11:32:13.125Z,24.45
2022-10-06T11:34:39.780Z,24.49
2022-10-06T11:37:25.491Z,23.73
2022-10-06T11:40:11.520Z,24.26
2022-10-06T11:42:40.758Z,24.17
2022-10-06T11:45:14.883Z,24.32
2022-10-06T11:47:41.656Z,24.34
2022-10-06T11:50:37.942Z,23.81
2022-10-06T11:53:23.004Z,23.86
2022-10-06T11:56:07.703Z,24.17
2022-10-06T11:59:01.062Z,24.19
2022-10-06T12:01:30.844Z,24.01
2022-10-06T12:04:10.049Z,24.20
2022-10-06T12:06:45.760Z,24.14
2022-10-06T12:09:24.817Z,24.30
2022-10-06T12:12:01.337Z,24.29
2022-10-06T12:17:19.333Z,24.32
2022-10-06T12:19:46.995Z,24.37
2022-10-06T12:22:19.695Z,24.27
2022-10-06T12:24:56.436Z,24.38
2022-10-06T12:27:42.004Z,24.45
2022-10-06T12:30:18.831Z,23.61
2022-10-06T12:32:53.383Z,23.28
2022-10-06T12:35:24.854Z,23.21
2022-10-06T12:37:56.519Z,23.71
2022-10-06T12:40:46.705Z,23.80
2022-10-06T12:43:19.858Z,23.96
2022-10-06T12:45:58.100Z,23.87
2022-10-06T12:48:27.851Z,24.26
2022-10-06T12:51:07.103Z,24.11
2022-10-06T12:54:02.958Z,24.17
2022-10-06T12:56:36.760Z,23.76
2022-10-06T12:59:30.258Z,23.89
2022-10-06T13:02:01.109Z,23.73
2022-10-06T13:04:32.553Z,23.81
2022-10-06T13:06:59.557Z,23.88
2022-10-06T13:09:26.931Z,23.78
2022-10-06T13:11:54.809Z,24.02
2022-10-06T13:14:23.290Z,24.42
2022-10-06T13:16:50.077Z,24.61
2022-10-06T13:19:22.769Z,24.58
2022-10-06T13:21:49.829Z,24.57
2022-10-06T13:24:19.761Z,24.71
2022-10-06T13:26:48.681Z,24.75
2022-10-06T13:29:23.025Z,24.89
2022-10-06T13:31:52.923Z,25.09
2022-10-06T13:34:45.055Z,25.10
2022-10-06T13:39:40.717Z,24.97
2022-10-06T13:42:10.939Z,25.04
2022-10-06T13:44:39.178Z,24.93
2022-10-06T13:47:19.402Z,24.87
2022-10-06T13:49:47.132Z,24.93
2022-10-06T13:52:24.236Z,24.90
2022-10-06T13:54:52.409Z,24.71
2022-10-06T13:57:35.026Z,24.77
2022-10-06T14:00:02.853Z,24.84
2022-10-06T14:02:37.016Z,24.68
2022-10-06T14:05:22.973Z,24.71
2022-10-06T14:07:50.043Z,24.72
2022-10-06T14:10:17.066Z,24.48
2022-10-06T14:12:46.935Z,24.67
2022-10-06T14:15:16.566Z,24.64
2022-10-06T14:17:43.598Z,24.42
2022-10-06T14:20:29.249Z,24.37
2022-10-06T14:22:56.179Z,24.39
2022-10-06T14:25:22.890Z,24.34
2022-10-06T14:27:49.652Z,24.27
2022-10-06T14:30:16.928Z,24.00
2022-10-06T14:32:43.599Z,23.87
2022-10-06T14:35:10.981Z,24.18
2022-10-06T14:37:38.046Z,23.84
2022-10-06T14:40:08.850Z,23.87
2022-10-06T14:42:38.704Z,23.76
2022-10-06T14:45:05.617Z,23.81
2022-10-06T14:47:32.271Z,23.79
2022-10-06T14:49:59.290Z,23.80
2022-10-06T14:52:26.059Z,23.78
2022-10-06T14:54:52.720Z,23.54
2022-10-06T14:57:20.966Z,23.72
2022-10-06T14:59:47.719Z,23.27
2022-10-06T15:02:14.542Z,23.16
2022-10-06T15:04:41.486Z,23.41
2022-10-06T15:07:26.989Z,23.12
2022-10-06T15:09:53.969Z,23.01
2022-10-06T15:12:20.744Z,23.17
2022-10-06T15:14:47.387Z,23.12
2022-10-06T15:17:14.351Z,22.94
2022-10-06T15:19:41.146Z,22.95
2022-10-06T15:22:09.007Z,22.92
2022-10-06T15:24:35.966Z,22.92
2022-10-06T15:27:24.692Z,22.84
2022-10-06T15:29:52.139Z,22.82
2022-10-06T15:32:18.799Z,22.72
2022-10-06T15:34:45.471Z,22.68
2022-10-06T15:37:12.455Z,22.76
2022-10-06T15:39:39.136Z,22.69
2022-10-06T15:42:06.645Z,22.61
2022-10-06T15:44:34.742Z,22.61
2022-10-06T15:47:01.815Z,22.55
2022-10-06T15:49:33.083Z,22.64
2022-10-06T15:52:02.723Z,22.61
2022-10-06T15:54:30.782Z,22.58
2022-10-06T15:56:58.084Z,22.60
2022-10-06T15:59:25.717Z,22.54
2022-10-06T16:01:57.551Z,22.46
2022-10-06T16:04:40.399Z,22.46
2022-10-06T16:07:07.675Z,22.43
2022-10-06T16:09:39.336Z,22.43
2022-10-06T16:12:09.291Z,22.44
2022-10-06T16:14:36.258Z,22.34
2022-10-06T16:17:04.216Z,22.12
2022-10-06T16:19:31.398Z,22.20
2022-10-06T16:21:59.245Z,22.23
2022-10-06T16:24:26.300Z,22.20
2022-10-06T16:26:53.234Z,22.09
2022-10-06T16:29:21.044Z,22.18
2022-10-06T16:31:48.565Z,22.14
2022-10-06T16:34:15.514Z,21.99
2022-10-06T16:36:42.663Z,22.01
2022-10-06T16:39:16.282Z,22.05
2022-10-06T16:41:43.399Z,22.07
2022-10-06T16:44:10.339Z,21.89
2022-10-06T16:46:37.079Z,21.86
2022-10-06T16:49:04.087Z,21.86
2022-10-06T16:51:31.779Z,21.82
2022-10-06T16:54:18.762Z,21.81
2022-10-06T16:56:47.471Z,21.75
2022-10-06T16:59:15.797Z,21.77
2022-10-06T17:01:42.641Z,21.78
2022-10-06T17:04:09.747Z,21.66
2022-10-06T17:06:39.248Z,21.64
2022-10-06T17:09:08.230Z,21.67
2022-10-06T17:11:35.801Z,21.63
2022-10-06T17:14:03.035Z,21.54
2022-10-06T17:16:31.211Z,21.48
2022-10-06T17:18:58.351Z,21.44
2022-10-06T17:21:46.114Z,21.47
2022-10-06T17:24:12.126Z,21.54
2022-10-06T17:26:39.798Z,21.44
2022-10-06T17:29:08.002Z,21.44
2022-10-06T17:31:38.979Z,21.45
2022-10-06T17:34:20.414Z,21.30
2022-10-06T17:36:49.045Z,21.11
2022-10-06T17:39:16.834Z,21.07
2022-10-06T17:41:47.190Z,21.13
2022-10-06T17:44:21.359Z,21.01
2022-10-06T17:46:49.033Z,21.01
2022-10-06T17:49:16.399Z,20.92
2022-10-06T17:51:45.413Z,20.73
2022-10-06T17:54:16.164Z,20.63
2022-10-06T17:56:43.517Z,20.55
2022-10-06T17:59:14.541Z,20.33
2022-10-06T18:01:42.110Z,20.48
2022-10-06T18:04:09.112Z,20.38
2022-10-06T18:06:36.138Z,20.48
2022-10-06T18:09:03.467Z,20.38
2022-10-06T18:11:35.830Z,20.33
2022-10-06T18:14:04.304Z,20.42
2022-10-06T18:16:32.510Z,20.37
2022-10-06T18:19:01.654Z,20.17
2022-10-06T18:21:28.921Z,19.90
2022-10-06T18:23:56.886Z,19.89
2022-10-06T18:26:23.844Z,19.89
2022-10-06T18:28:50.673Z,19.90
2022-10-06T18:31:18.474Z,19.82
2022-10-06T18:36:33.673Z,19.62
2022-10-06T18:39:01.307Z,19.76
2022-10-06T18:41:28.645Z,19.80
2022-10-06T18:43:55.720Z,19.76
2022-10-06T18:46:41.194Z,19.67
2022-10-06T18:49:11.413Z,19.74
2022-10-06T18:51:40.115Z,19.65
2022-10-06T18:54:08.565Z,19.55
2022-10-06T18:56:36.346Z,19.58
2022-10-06T18:59:05.232Z,19.56
2022-10-06T19:01:31.976Z,19.49
2022-10-06T19:04:01.448Z,19.57
2022-10-06T19:06:28.840Z,19.43
2022-10-06T19:09:01.144Z,19.39
2022-10-06T19:11:47.852Z,19.30
2022-10-06T19:14:15.969Z,19.25
2022-10-06T19:16:43.454Z,19.10
2022-10-06T19:19:14.664Z,19.19
2022-10-06T19:21:42.630Z,19.23
2022-10-06T19:24:11.591Z,19.27
2022-10-06T19:26:42.484Z,19.10
2022-10-06T19:29:13.806Z,19.01
2022-10-06T19:31:42.575Z,19.07
2022-10-06T19:34:11.759Z,18.87
2022-10-06T19:36:40.735Z,18.88
2022-10-06T19:39:11.903Z,18.78
2022-10-06T19:41:57.961Z,18.93
2022-10-06T19:44:25.142Z,19.00
2022-10-06T19:46:52.193Z,18.93
2022-10-06T19:49:18.956Z,18.77
2022-10-06T19:51:47.785Z,18.84
2022-10-06T19:54:15.183Z,18.91
2022-10-06T19:56:42.075Z,18.85
2022-10-06T19:59:12.152Z,18.91
2022-10-06T20:01:41.469Z,18.84
2022-10-06T20:04:09.120Z,18.80
2022-10-06T20:06:37.304Z,18.51
2022-10-06T20:09:07.620Z,18.51
2022-10-06T20:11:38.440Z,18.49
2022-10-06T20:14:10.624Z,18.68
2022-10-06T20:16:40.141Z,17.98
2022-10-06T20:19:08.151Z,18.36
2022-10-06T20:21:35.495Z,18.51
2022-10-06T20:24:04.103Z,18.49
2022-10-06T20:26:32.174Z,18.37
2022-10-06T20:28:59.730Z,18.52
2022-10-06T20:31:27.994Z,18.54
2022-10-06T20:33:57.861Z,18.49
2022-10-06T20:36:25.004Z,18.49
2022-10-06T20:39:10.494Z,18.42
2022-10-06T20:41:37.379Z,18.44
2022-10-06T20:44:04.708Z,18.23
2022-10-06T20:46:32.260Z,18.32
2022-10-06T20:49:00.640Z,18.17
2022-10-06T20:51:27.879Z,18.24
2022-10-06T20:53:56.976Z,18.28
2022-10-06T20:56:24.613Z,18.17
2022-10-06T20:58:52.075Z,18.19
2022-10-06T21:01:19.555Z,17.96
2022-10-06T21:03:47.392Z,18.15
2022-10-06T21:06:15.365Z,18.01
2022-10-06T21:08:44.126Z,17.98
2022-10-06T21:11:17.242Z,17.88
2022-10-06T21:14:10.601Z,17.96
2022-10-06T21:16:38.533Z,18.08
2022-10-06T21:19:08.246Z,17.86
2022-10-06T21:21:35.805Z,17.84
2022-10-06T21:24:02.986Z,17.74
2022-10-06T21:26:30.159Z,17.89
2022-10-06T21:28:57.099Z,17.89
2022-10-06T21:31:24.900Z,17.60
2022-10-06T21:33:52.630Z,17.64
2022-10-06T21:36:22.620Z,17.63
2022-10-06T21:38:50.552Z,17.70
2022-10-06T21:41:31.843Z,17.81
2022-10-06T21:44:03.108Z,17.65
2022-10-06T21:46:31.581Z,17.52
2022-10-06T21:48:58.960Z,17.62
2022-10-06T21:51:26.513Z,17.56
2022-10-06T21:53:53.848Z,17.64
2022-10-06T21:56:21.476Z,17.57
2022-10-06T21:58:51.540Z,17.39
2022-10-06T22:01:23.553Z,17.45
2022-10-06T22:03:50.996Z,17.00
2022-10-06T22:06:19.582Z,17.24
2022-10-06T22:08:46.749Z,17.16
2022-10-06T22:11:15.863Z,17.39
2022-10-06T22:13:44.433Z,17.36
2022-10-06T22:16:12.224Z,17.45
2022-10-06T22:18:39.685Z,17.14
2022-10-06T22:21:17.151Z,17.27
2022-10-06T22:23:45.129Z,17.39
2022-10-06T22:26:13.308Z,17.28
2022-10-06T22:28:40.400Z,17.15
2022-10-06T22:31:08.445Z,17.10
2022-10-06T22:33:35.806Z,17.14
2022-10-06T22:36:03.072Z,17.16
2022-10-06T22:38:31.066Z,17.31
2022-10-06T22:41:01.284Z,17.07
2022-10-06T22:43:28.390Z,17.13
2022-10-06T22:45:55.647Z,17.06
2022-10-06T22:48:22.935Z,16.87
2022-10-06T22:50:49.974Z,17.16
2022-10-06T22:53:20.979Z,16.87
2022-10-06T22:55:47.954Z,16.87
2022-10-06T22:58:15.194Z,16.93
2022-10-06T23:00:42.692Z,16.90
2022-10-06T23:03:09.702Z,17.02
2022-10-06T23:05:36.982Z,17.01
2022-10-06T23:08:04.811Z,16.97
2022-10-06T23:10:32.768Z,16.96
2022-10-06T23:12:59.736Z,16.98
2022-10-06T23:15:27.126Z,17.05
2022-10-06T23:17:53.994Z,16.69
2022-10-06T23:20:21.126Z,16.74
2022-10-06T23:22:48.298Z,16.69
2022-10-06T23:25:15.200Z,16.58
2022-10-06T23:27:42.245Z,16.43
2022-10-06T23:30:10.271Z,16.57
2022-10-06T23:32:37.657Z,16.42
2022-10-06T23:35:04.771Z,16.47
2022-10-06T23:37:31.947Z,16.50
2022-10-06T23:39:58.874Z,16.57
2022-10-06T23:42:25.776Z,16.53
2022-10-06T23:44:53.599Z,16.31
2022-10-06T23:47:20.564Z,16.17
2022-10-06T23:49:47.461Z,16.24
2022-10-06T23:52:15.079Z,16.26
2022-10-06T23:54:42.038Z,16.37
2022-10-06T23:57:09.494Z,16.32
2022-10-06T23:59:36.650Z,16.04
